sensor_id;sensor_type;location;lat;lon;timestamp;temperature;humidity
19868;DHT22;10096;51.112;6.776;2024-02-28T00:00:07;2.60;99.90
19868;DHT22;10096;51.112;6.776;2024-02-28T00:02:37;2.80;99.90
19868;DHT22;10096;51.112;6.776;2024-02-28T00:05:05;2.90;99.90
19868;DHT22;10096;51.112;6.776;2024-02-28T00:07:35;3.00;1.00
19868;DHT22;10096;51.112;6.776;2024-02-28T00:10:02;2.90;99.90
19868;DHT22;10096;51.112;6.776;2024-02-28T00:12:29;3.00;1.00
19868;DHT22;10096;51.112;6.776;2024-02-28T00:14:57;3.10;99.90
19868;DHT22;10096;51.112;6.776;2024-02-28T00:17:24;3.00;45.40
19868;DHT22;10096;51.112;6.776;2024-02-28T00:19:51;3.00;99.90
19868;DHT22;10096;51.112;6.776;2024-02-28T00:22:18;3.10;99.90
19868;DHT22;10096;51.112;6.776;2024-02-28T00:24:45;3.10;99.90
19868;DHT22;10096;51.112;6.776;2024-02-28T00:27:13;3.10;99.90
19868;DHT22;10096;51.112;6.776;2024-02-28T00:29:40;3.10;1.00
19868;DHT22;10096;51.112;6.776;2024-02-28T00:32:08;3.10;1.00
19868;DHT22;10096;51.112;6.776;2024-02-28T00:34:36;3.00;1.00
19868;DHT22;10096;51.112;6.776;2024-02-28T00:37:03;3.10;1.00
19868;DHT22;10096;51.112;6.776;2024-02-28T00:39:30;3.10;1.00
19868;DHT22;10096;51.112;6.776;2024-02-28T00:41:57;3.10;1.00
19868;DHT22;10096;51.112;6.776;2024-02-28T00:44:24;3.00;99.90
19868;DHT22;10096;51.112;6.776;2024-02-28T00:46:53;2.90;99.90
19868;DHT22;10096;51.112;6.776;2024-02-28T00:49:21;2.90;99.90
19868;DHT22;10096;51.112;6.776;2024-02-28T00:51:48;2.80;99.90
19868;DHT22;10096;51.112;6.776;2024-02-28T00:54:18;2.60;99.90
19868;DHT22;10096;51.112;6.776;2024-02-28T00:56:44;2.50;99.90
19868;DHT22;10096;51.112;6.776;2024-02-28T00:59:11;2.50;99.90
19868;DHT22;10096;51.112;6.776;2024-02-28T01:01:39;2.40;99.90
19868;DHT22;10096;51.112;6.776;2024-02-28T01:04:12;2.20;99.90
19868;DHT22;10096;51.112;6.776;2024-02-28T01:06:42;2.10;1.00
19868;DHT22;10096;51.112;6.776;2024-02-28T01:09:09;2.20;42.40
19868;DHT22;10096;51.112;6.776;2024-02-28T01:11:41;2.30;1.00
19868;DHT22;10096;51.112;6.776;2024-02-28T01:14:09;2.40;1.00
19868;DHT22;10096;51.112;6.776;2024-02-28T01:16:38;2.30;1.00
19868;DHT22;10096;51.112;6.776;2024-02-28T01:19:10;2.50;73.20
19868;DHT22;10096;51.112;6.776;2024-02-28T01:21:42;2.40;1.00
19868;DHT22;10096;51.112;6.776;2024-02-28T01:24:09;2.30;99.90
19868;DHT22;10096;51.112;6.776;2024-02-28T01:26:36;2.20;99.90
19868;DHT22;10096;51.112;6.776;2024-02-28T01:29:03;2.30;99.90
19868;DHT22;10096;51.112;6.776;2024-02-28T01:31:33;2.30;1.00
19868;DHT22;10096;51.112;6.776;2024-02-28T01:34:06;2.20;1.00
19868;DHT22;10096;51.112;6.776;2024-02-28T01:36:36;2.30;1.00
19868;DHT22;10096;51.112;6.776;2024-02-28T01:39:07;2.20;1.00
19868;DHT22;10096;51.112;6.776;2024-02-28T01:41:34;2.20;1.00
19868;DHT22;10096;51.112;6.776;2024-02-28T01:44:01;2.30;1.00
19868;DHT22;10096;51.112;6.776;2024-02-28T01:46:28;2.30;1.00
19868;DHT22;10096;51.112;6.776;2024-02-28T01:48:57;2.30;1.00
19868;DHT22;10096;51.112;6.776;2024-02-28T01:51:25;2.30;1.00
19868;DHT22;10096;51.112;6.776;2024-02-28T01:53:54;2.30;1.00
19868;DHT22;10096;51.112;6.776;2024-02-28T01:56:23;2.30;1.00
19868;DHT22;10096;51.112;6.776;2024-02-28T01:58:55;2.20;1.00
19868;DHT22;10096;51.112;6.776;2024-02-28T02:01:26;2.30;1.00
19868;DHT22;10096;51.112;6.776;2024-02-28T02:03:54;2.20;1.00
19868;DHT22;10096;51.112;6.776;2024-02-28T02:06:21;2.20;1.00
19868;DHT22;10096;51.112;6.776;2024-02-28T02:08:48;2.10;99.90
19868;DHT22;10096;51.112;6.776;2024-02-28T02:11:17;2.00;99.90
19868;DHT22;10096;51.112;6.776;2024-02-28T02:13:56;2.00;99.90
19868;DHT22;10096;51.112;6.776;2024-02-28T02:16:23;1.90;99.90
19868;DHT22;10096;51.112;6.776;2024-02-28T02:18:52;1.90;99.90
19868;DHT22;10096;51.112;6.776;2024-02-28T02:21:22;1.80;1.00
19868;DHT22;10096;51.112;6.776;2024-02-28T02:23:50;1.80;1.00
19868;DHT22;10096;51.112;6.776;2024-02-28T02:26:22;1.90;6.20
19868;DHT22;10096;51.112;6.776;2024-02-28T02:28:51;2.10;1.00
19868;DHT22;10096;51.112;6.776;2024-02-28T02:31:18;2.20;99.90
19868;DHT22;10096;51.112;6.776;2024-02-28T02:33:47;2.30;1.00
19868;DHT22;10096;51.112;6.776;2024-02-28T02:36:17;2.30;1.00
19868;DHT22;10096;51.112;6.776;2024-02-28T02:38:52;2.50;1.00
19868;DHT22;10096;51.112;6.776;2024-02-28T02:41:21;2.50;99.90
19868;DHT22;10096;51.112;6.776;2024-02-28T02:43:49;2.60;1.00
19868;DHT22;10096;51.112;6.776;2024-02-28T02:46:16;2.50;99.90
19868;DHT22;10096;51.112;6.776;2024-02-28T02:48:43;2.70;70.30
19868;DHT22;10096;51.112;6.776;2024-02-28T02:51:18;2.60;1.00
19868;DHT22;10096;51.112;6.776;2024-02-28T02:53:45;2.70;1.00
19868;DHT22;10096;51.112;6.776;2024-02-28T02:56:14;2.80;1.00
19868;DHT22;10096;51.112;6.776;2024-02-28T02:58:42;3.00;99.90
19868;DHT22;10096;51.112;6.776;2024-02-28T03:01:08;3.00;99.90
19868;DHT22;10096;51.112;6.776;2024-02-28T03:03:36;2.90;52.10
19868;DHT22;10096;51.112;6.776;2024-02-28T03:06:11;2.90;30.90
19868;DHT22;10096;51.112;6.776;2024-02-28T03:08:51;2.90;91.10
19868;DHT22;10096;51.112;6.776;2024-02-28T03:11:20;3.00;99.90
19868;DHT22;10096;51.112;6.776;2024-02-28T03:13:46;3.10;93.90
19868;DHT22;10096;51.112;6.776;2024-02-28T03:16:13;3.10;1.00
19868;DHT22;10096;51.112;6.776;2024-02-28T03:18:46;3.10;1.00
19868;DHT22;10096;51.112;6.776;2024-02-28T03:21:13;3.00;1.00
19868;DHT22;10096;51.112;6.776;2024-02-28T03:23:41;3.00;1.00
19868;DHT22;10096;51.112;6.776;2024-02-28T03:26:10;3.00;1.00
19868;DHT22;10096;51.112;6.776;2024-02-28T03:28:38;3.10;1.00
19868;DHT22;10096;51.112;6.776;2024-02-28T03:31:05;3.20;1.00
19868;DHT22;10096;51.112;6.776;2024-02-28T03:33:35;3.20;1.00
19868;DHT22;10096;51.112;6.776;2024-02-28T03:36:04;3.10;1.00
19868;DHT22;10096;51.112;6.776;2024-02-28T03:38:31;3.30;1.00
19868;DHT22;10096;51.112;6.776;2024-02-28T03:41:01;3.60;1.00
19868;DHT22;10096;51.112;6.776;2024-02-28T03:43:31;3.50;1.00
19868;DHT22;10096;51.112;6.776;2024-02-28T03:46:05;3.60;99.90
19868;DHT22;10096;51.112;6.776;2024-02-28T03:48:32;3.50;99.90
19868;DHT22;10096;51.112;6.776;2024-02-28T03:51:04;3.50;99.90
19868;DHT22;10096;51.112;6.776;2024-02-28T03:53:33;3.50;99.90
19868;DHT22;10096;51.112;6.776;2024-02-28T03:56:00;3.50;99.90
19868;DHT22;10096;51.112;6.776;2024-02-28T03:58:29;3.50;99.90
19868;DHT22;10096;51.112;6.776;2024-02-28T04:00:56;3.50;99.90
19868;DHT22;10096;51.112;6.776;2024-02-28T04:03:40;3.50;99.90
19868;DHT22;10096;51.112;6.776;2024-02-28T04:06:06;3.60;1.00
19868;DHT22;10096;51.112;6.776;2024-02-28T04:08:33;3.60;1.00
19868;DHT22;10096;51.112;6.776;2024-02-28T04:11:00;3.80;1.00
19868;DHT22;10096;51.112;6.776;2024-02-28T04:13:27;3.80;1.00
19868;DHT22;10096;51.112;6.776;2024-02-28T04:15:54;3.80;1.00
19868;DHT22;10096;51.112;6.776;2024-02-28T04:18:21;3.80;1.00
19868;DHT22;10096;51.112;6.776;2024-02-28T04:20:50;3.90;1.00
19868;DHT22;10096;51.112;6.776;2024-02-28T04:23:17;4.10;1.00
19868;DHT22;10096;51.112;6.776;2024-02-28T04:25:44;4.10;1.00
19868;DHT22;10096;51.112;6.776;2024-02-28T04:28:11;4.20;1.00
19868;DHT22;10096;51.112;6.776;2024-02-28T04:30:39;4.30;1.00
19868;DHT22;10096;51.112;6.776;2024-02-28T04:33:11;4.30;1.00
19868;DHT22;10096;51.112;6.776;2024-02-28T04:35:41;4.30;1.00
19868;DHT22;10096;51.112;6.776;2024-02-28T04:38:15;4.40;1.00
19868;DHT22;10096;51.112;6.776;2024-02-28T04:40:42;4.40;99.90
19868;DHT22;10096;51.112;6.776;2024-02-28T04:43:09;4.40;99.90
19868;DHT22;10096;51.112;6.776;2024-02-28T04:45:40;4.40;99.90
19868;DHT22;10096;51.112;6.776;2024-02-28T04:48:07;4.50;1.00
19868;DHT22;10096;51.112;6.776;2024-02-28T04:50:34;4.60;1.00
19868;DHT22;10096;51.112;6.776;2024-02-28T04:53:01;4.60;99.90
19868;DHT22;10096;51.112;6.776;2024-02-28T04:55:32;4.60;99.90
19868;DHT22;10096;51.112;6.776;2024-02-28T04:58:04;4.50;99.90
19868;DHT22;10096;51.112;6.776;2024-02-28T05:00:35;4.60;99.90
19868;DHT22;10096;51.112;6.776;2024-02-28T05:03:04;4.50;99.90
19868;DHT22;10096;51.112;6.776;2024-02-28T05:05:32;4.40;99.90
19868;DHT22;10096;51.112;6.776;2024-02-28T05:08:01;4.40;99.90
19868;DHT22;10096;51.112;6.776;2024-02-28T05:10:28;4.40;99.90
19868;DHT22;10096;51.112;6.776;2024-02-28T05:12:57;4.40;99.90
19868;DHT22;10096;51.112;6.776;2024-02-28T05:15:23;4.40;99.90
19868;DHT22;10096;51.112;6.776;2024-02-28T05:17:52;4.40;99.90
19868;DHT22;10096;51.112;6.776;2024-02-28T05:20:20;4.50;99.90
19868;DHT22;10096;51.112;6.776;2024-02-28T05:22:51;4.40;99.90
19868;DHT22;10096;51.112;6.776;2024-02-28T05:25:19;4.40;99.90
19868;DHT22;10096;51.112;6.776;2024-02-28T05:27:46;4.50;99.90
19868;DHT22;10096;51.112;6.776;2024-02-28T05:30:15;4.40;99.90
19868;DHT22;10096;51.112;6.776;2024-02-28T05:32:42;4.30;99.90
19868;DHT22;10096;51.112;6.776;2024-02-28T05:35:13;4.20;99.90
19868;DHT22;10096;51.112;6.776;2024-02-28T05:37:41;4.20;99.90
19868;DHT22;10096;51.112;6.776;2024-02-28T05:40:08;4.10;99.90
19868;DHT22;10096;51.112;6.776;2024-02-28T05:42:42;4.10;99.90
19868;DHT22;10096;51.112;6.776;2024-02-28T05:45:09;4.10;1.00
19868;DHT22;10096;51.112;6.776;2024-02-28T05:47:41;4.00;1.00
19868;DHT22;10096;51.112;6.776;2024-02-28T05:50:09;4.00;1.00
19868;DHT22;10096;51.112;6.776;2024-02-28T05:52:41;4.00;1.00
19868;DHT22;10096;51.112;6.776;2024-02-28T05:55:08;4.10;1.00
19868;DHT22;10096;51.112;6.776;2024-02-28T05:57:37;4.00;1.00
19868;DHT22;10096;51.112;6.776;2024-02-28T06:00:08;4.00;1.00
19868;DHT22;10096;51.112;6.776;2024-02-28T06:02:37;4.00;1.00
19868;DHT22;10096;51.112;6.776;2024-02-28T06:05:06;3.90;1.00
19868;DHT22;10096;51.112;6.776;2024-02-28T06:07:37;4.00;99.90
19868;DHT22;10096;51.112;6.776;2024-02-28T06:10:06;4.20;99.90
19868;DHT22;10096;51.112;6.776;2024-02-28T06:12:34;4.30;99.90
19868;DHT22;10096;51.112;6.776;2024-02-28T06:15:04;4.20;1.00
19868;DHT22;10096;51.112;6.776;2024-02-28T06:17:31;4.00;1.00
19868;DHT22;10096;51.112;6.776;2024-02-28T06:19:58;4.00;30.00
19868;DHT22;10096;51.112;6.776;2024-02-28T06:22:27;3.90;1.00
19868;DHT22;10096;51.112;6.776;2024-02-28T06:24:56;3.70;30.00
19868;DHT22;10096;51.112;6.776;2024-02-28T06:27:25;3.60;99.90
19868;DHT22;10096;51.112;6.776;2024-02-28T06:29:53;3.70;1.00
19868;DHT22;10096;51.112;6.776;2024-02-28T06:32:22;3.80;1.00
19868;DHT22;10096;51.112;6.776;2024-02-28T06:34:53;3.80;1.00
19868;DHT22;10096;51.112;6.776;2024-02-28T06:37:21;3.80;1.00
19868;DHT22;10096;51.112;6.776;2024-02-28T06:39:51;3.90;1.00
19868;DHT22;10096;51.112;6.776;2024-02-28T06:42:18;3.70;1.00
19868;DHT22;10096;51.112;6.776;2024-02-28T06:44:46;3.70;1.00
19868;DHT22;10096;51.112;6.776;2024-02-28T06:47:15;3.80;1.00
19868;DHT22;10096;51.112;6.776;2024-02-28T06:49:48;3.80;70.50
19868;DHT22;10096;51.112;6.776;2024-02-28T06:52:20;3.80;99.90
19868;DHT22;10096;51.112;6.776;2024-02-28T06:54:55;4.20;99.90
19868;DHT22;10096;51.112;6.776;2024-02-28T06:57:27;4.10;99.90
19868;DHT22;10096;51.112;6.776;2024-02-28T06:59:54;4.00;1.00
19868;DHT22;10096;51.112;6.776;2024-02-28T07:02:24;3.90;1.00
19868;DHT22;10096;51.112;6.776;2024-02-28T07:05:03;3.90;1.00
19868;DHT22;10096;51.112;6.776;2024-02-28T07:07:34;3.90;1.00
19868;DHT22;10096;51.112;6.776;2024-02-28T07:10:06;3.80;26.00
19868;DHT22;10096;51.112;6.776;2024-02-28T07:12:34;3.90;1.00
19868;DHT22;10096;51.112;6.776;2024-02-28T07:15:01;3.90;99.90
19868;DHT22;10096;51.112;6.776;2024-02-28T07:17:28;4.00;99.90
19868;DHT22;10096;51.112;6.776;2024-02-28T07:20:09;4.00;94.30
19868;DHT22;10096;51.112;6.776;2024-02-28T07:22:36;4.10;77.90
19868;DHT22;10096;51.112;6.776;2024-02-28T07:25:10;4.00;1.00
19868;DHT22;10096;51.112;6.776;2024-02-28T07:27:36;3.80;1.00
19868;DHT22;10096;51.112;6.776;2024-02-28T07:30:04;4.10;1.00
19868;DHT22;10096;51.112;6.776;2024-02-28T07:32:34;4.10;1.00
19868;DHT22;10096;51.112;6.776;2024-02-28T07:35:05;3.80;1.00
19868;DHT22;10096;51.112;6.776;2024-02-28T07:37:32;4.20;1.00
19868;DHT22;10096;51.112;6.776;2024-02-28T07:39:59;4.30;1.00
19868;DHT22;10096;51.112;6.776;2024-02-28T07:42:27;4.30;1.00
19868;DHT22;10096;51.112;6.776;2024-02-28T07:44:55;4.30;1.00
19868;DHT22;10096;51.112;6.776;2024-02-28T07:47:22;4.50;1.00
19868;DHT22;10096;51.112;6.776;2024-02-28T07:49:51;4.40;99.90
19868;DHT22;10096;51.112;6.776;2024-02-28T07:52:21;4.40;99.90
19868;DHT22;10096;51.112;6.776;2024-02-28T07:54:50;4.40;1.00
19868;DHT22;10096;51.112;6.776;2024-02-28T07:57:17;4.80;1.00
19868;DHT22;10096;51.112;6.776;2024-02-28T07:59:46;4.60;99.90
19868;DHT22;10096;51.112;6.776;2024-02-28T08:02:17;4.60;99.90
19868;DHT22;10096;51.112;6.776;2024-02-28T08:04:48;4.70;83.80
19868;DHT22;10096;51.112;6.776;2024-02-28T08:07:16;4.60;99.90
19868;DHT22;10096;51.112;6.776;2024-02-28T08:09:49;4.60;1.00
19868;DHT22;10096;51.112;6.776;2024-02-28T08:12:16;4.60;27.20
19868;DHT22;10096;51.112;6.776;2024-02-28T08:14:43;4.60;99.90
19868;DHT22;10096;51.112;6.776;2024-02-28T08:17:17;4.70;99.90
19868;DHT22;10096;51.112;6.776;2024-02-28T08:19:47;4.90;99.90
19868;DHT22;10096;51.112;6.776;2024-02-28T08:22:17;5.00;1.00
19868;DHT22;10096;51.112;6.776;2024-02-28T08:24:45;4.90;1.00
19868;DHT22;10096;51.112;6.776;2024-02-28T08:27:12;4.80;1.00
19868;DHT22;10096;51.112;6.776;2024-02-28T08:29:40;4.80;1.00
19868;DHT22;10096;51.112;6.776;2024-02-28T08:32:21;4.80;1.00
19868;DHT22;10096;51.112;6.776;2024-02-28T08:35:03;4.80;1.00
19868;DHT22;10096;51.112;6.776;2024-02-28T08:37:47;4.70;1.00
19868;DHT22;10096;51.112;6.776;2024-02-28T08:40:15;4.90;1.00
19868;DHT22;10096;51.112;6.776;2024-02-28T08:42:42;5.10;1.00
19868;DHT22;10096;51.112;6.776;2024-02-28T08:45:10;5.10;1.00
19868;DHT22;10096;51.112;6.776;2024-02-28T08:47:55;5.10;1.00
19868;DHT22;10096;51.112;6.776;2024-02-28T08:50:23;5.20;1.00
19868;DHT22;10096;51.112;6.776;2024-02-28T08:52:50;5.20;1.00
19868;DHT22;10096;51.112;6.776;2024-02-28T08:55:16;5.30;99.90
19868;DHT22;10096;51.112;6.776;2024-02-28T08:57:48;5.30;99.90
19868;DHT22;10096;51.112;6.776;2024-02-28T09:00:15;5.50;99.90
19868;DHT22;10096;51.112;6.776;2024-02-28T09:02:46;5.70;99.90
19868;DHT22;10096;51.112;6.776;2024-02-28T09:05:25;6.00;99.90
19868;DHT22;10096;51.112;6.776;2024-02-28T09:07:52;6.20;99.90
19868;DHT22;10096;51.112;6.776;2024-02-28T09:10:20;6.60;1.00
19868;DHT22;10096;51.112;6.776;2024-02-28T09:12:50;6.70;1.00
19868;DHT22;10096;51.112;6.776;2024-02-28T09:15:21;6.60;1.00
19868;DHT22;10096;51.112;6.776;2024-02-28T09:17:50;6.80;1.00
19868;DHT22;10096;51.112;6.776;2024-02-28T09:20:26;6.80;99.90
19868;DHT22;10096;51.112;6.776;2024-02-28T09:23:01;6.70;99.90
19868;DHT22;10096;51.112;6.776;2024-02-28T09:25:29;6.40;1.00
19868;DHT22;10096;51.112;6.776;2024-02-28T09:28:01;6.50;1.00
19868;DHT22;10096;51.112;6.776;2024-02-28T09:30:29;6.60;1.00
19868;DHT22;10096;51.112;6.776;2024-02-28T09:33:00;6.50;1.00
19868;DHT22;10096;51.112;6.776;2024-02-28T09:35:29;6.50;1.00
19868;DHT22;10096;51.112;6.776;2024-02-28T09:37:58;6.70;1.00
19868;DHT22;10096;51.112;6.776;2024-02-28T09:40:24;7.10;99.90
19868;DHT22;10096;51.112;6.776;2024-02-28T09:43:01;7.00;99.90
19868;DHT22;10096;51.112;6.776;2024-02-28T09:45:29;7.10;99.90
19868;DHT22;10096;51.112;6.776;2024-02-28T09:48:12;7.10;99.90
19868;DHT22;10096;51.112;6.776;2024-02-28T09:50:50;7.30;99.90
19868;DHT22;10096;51.112;6.776;2024-02-28T09:53:18;7.40;99.90
19868;DHT22;10096;51.112;6.776;2024-02-28T09:56:00;7.60;99.90
19868;DHT22;10096;51.112;6.776;2024-02-28T09:58:28;7.90;99.90
19868;DHT22;10096;51.112;6.776;2024-02-28T10:01:13;7.90;99.90
19868;DHT22;10096;51.112;6.776;2024-02-28T10:03:44;8.00;99.90
19868;DHT22;10096;51.112;6.776;2024-02-28T10:06:13;7.80;99.90
19868;DHT22;10096;51.112;6.776;2024-02-28T10:08:41;7.80;99.90
19868;DHT22;10096;51.112;6.776;2024-02-28T10:11:09;7.90;99.90
19868;DHT22;10096;51.112;6.776;2024-02-28T10:13:36;7.70;99.90
19868;DHT22;10096;51.112;6.776;2024-02-28T10:16:07;7.70;99.90
19868;DHT22;10096;51.112;6.776;2024-02-28T10:18:36;7.80;99.90
19868;DHT22;10096;51.112;6.776;2024-02-28T10:21:12;7.90;99.90
19868;DHT22;10096;51.112;6.776;2024-02-28T10:23:46;7.90;99.90
19868;DHT22;10096;51.112;6.776;2024-02-28T10:26:24;8.30;99.90
19868;DHT22;10096;51.112;6.776;2024-02-28T10:28:52;8.30;99.90
19868;DHT22;10096;51.112;6.776;2024-02-28T10:31:21;8.00;99.90
19868;DHT22;10096;51.112;6.776;2024-02-28T10:33:50;8.10;99.90
19868;DHT22;10096;51.112;6.776;2024-02-28T10:36:18;8.10;99.90
19868;DHT22;10096;51.112;6.776;2024-02-28T10:38:46;8.10;99.90
19868;DHT22;10096;51.112;6.776;2024-02-28T10:41:13;8.40;99.90
19868;DHT22;10096;51.112;6.776;2024-02-28T10:43:42;8.40;99.90
19868;DHT22;10096;51.112;6.776;2024-02-28T10:46:17;8.60;99.90
19868;DHT22;10096;51.112;6.776;2024-02-28T10:48:49;8.70;99.90
19868;DHT22;10096;51.112;6.776;2024-02-28T10:51:23;8.50;99.90
19868;DHT22;10096;51.112;6.776;2024-02-28T10:54:07;8.80;99.90
19868;DHT22;10096;51.112;6.776;2024-02-28T10:56:41;8.90;99.90
19868;DHT22;10096;51.112;6.776;2024-02-28T10:59:19;9.00;99.90
19868;DHT22;10096;51.112;6.776;2024-02-28T11:01:48;8.90;99.90
19868;DHT22;10096;51.112;6.776;2024-02-28T11:04:24;8.70;99.90
19868;DHT22;10096;51.112;6.776;2024-02-28T11:06:56;9.00;99.90
19868;DHT22;10096;51.112;6.776;2024-02-28T11:09:28;8.80;99.90
19868;DHT22;10096;51.112;6.776;2024-02-28T11:11:56;9.10;99.90
19868;DHT22;10096;51.112;6.776;2024-02-28T11:14:23;9.10;99.90
19868;DHT22;10096;51.112;6.776;2024-02-28T11:17:00;9.20;99.90
19868;DHT22;10096;51.112;6.776;2024-02-28T11:19:28;9.30;99.90
19868;DHT22;10096;51.112;6.776;2024-02-28T11:22:00;9.20;99.90
19868;DHT22;10096;51.112;6.776;2024-02-28T11:24:32;8.90;99.90
19868;DHT22;10096;51.112;6.776;2024-02-28T11:29:54;9.10;99.90
19868;DHT22;10096;51.112;6.776;2024-02-28T11:32:26;8.90;99.90
19868;DHT22;10096;51.112;6.776;2024-02-28T11:34:53;8.80;99.90
19868;DHT22;10096;51.112;6.776;2024-02-28T11:37:20;8.80;99.90
19868;DHT22;10096;51.112;6.776;2024-02-28T11:39:50;8.80;99.90
19868;DHT22;10096;51.112;6.776;2024-02-28T11:42:17;9.20;99.90
19868;DHT22;10096;51.112;6.776;2024-02-28T11:44:53;9.20;99.90
19868;DHT22;10096;51.112;6.776;2024-02-28T11:47:29;9.20;99.90
19868;DHT22;10096;51.112;6.776;2024-02-28T11:50:01;9.10;99.90
19868;DHT22;10096;51.112;6.776;2024-02-28T11:52:32;9.10;99.90
19868;DHT22;10096;51.112;6.776;2024-02-28T11:55:00;9.10;99.90
19868;DHT22;10096;51.112;6.776;2024-02-28T11:57:31;9.10;99.90
19868;DHT22;10096;51.112;6.776;2024-02-28T12:00:03;9.30;99.90
19868;DHT22;10096;51.112;6.776;2024-02-28T12:02:31;9.30;99.90
19868;DHT22;10096;51.112;6.776;2024-02-28T12:05:02;9.50;99.90
19868;DHT22;10096;51.112;6.776;2024-02-28T12:07:29;9.50;99.90
19868;DHT22;10096;51.112;6.776;2024-02-28T12:09:56;9.70;99.90
19868;DHT22;10096;51.112;6.776;2024-02-28T12:12:27;9.40;99.90
19868;DHT22;10096;51.112;6.776;2024-02-28T12:15:03;9.40;99.90
19868;DHT22;10096;51.112;6.776;2024-02-28T12:17:35;9.30;99.90
19868;DHT22;10096;51.112;6.776;2024-02-28T12:20:07;9.30;99.90
19868;DHT22;10096;51.112;6.776;2024-02-28T12:22:34;9.50;99.90
19868;DHT22;10096;51.112;6.776;2024-02-28T12:25:04;9.40;99.90
19868;DHT22;10096;51.112;6.776;2024-02-28T12:27:35;9.50;99.90
19868;DHT22;10096;51.112;6.776;2024-02-28T12:30:11;9.70;99.90
19868;DHT22;10096;51.112;6.776;2024-02-28T12:32:40;9.70;99.90
19868;DHT22;10096;51.112;6.776;2024-02-28T12:35:08;9.60;99.90
19868;DHT22;10096;51.112;6.776;2024-02-28T12:37:36;9.70;99.90
19868;DHT22;10096;51.112;6.776;2024-02-28T12:40:05;9.90;99.90
19868;DHT22;10096;51.112;6.776;2024-02-28T12:42:40;9.80;99.90
19868;DHT22;10096;51.112;6.776;2024-02-28T12:45:07;9.80;99.90
19868;DHT22;10096;51.112;6.776;2024-02-28T12:47:35;9.70;99.90
19868;DHT22;10096;51.112;6.776;2024-02-28T12:50:03;9.70;99.90
19868;DHT22;10096;51.112;6.776;2024-02-28T12:52:36;9.90;99.90
19868;DHT22;10096;51.112;6.776;2024-02-28T12:55:08;9.80;99.40
19868;DHT22;10096;51.112;6.776;2024-02-28T12:57:42;10.10;99.90
19868;DHT22;10096;51.112;6.776;2024-02-28T13:00:11;10.20;98.70
19868;DHT22;10096;51.112;6.776;2024-02-28T13:02:43;10.00;99.30
19868;DHT22;10096;51.112;6.776;2024-02-28T13:05:16;10.10;95.80
19868;DHT22;10096;51.112;6.776;2024-02-28T13:07:43;10.10;87.40
19868;DHT22;10096;51.112;6.776;2024-02-28T13:10:26;10.40;88.50
19868;DHT22;10096;51.112;6.776;2024-02-28T13:13:08;10.10;79.80
19868;DHT22;10096;51.112;6.776;2024-02-28T13:16:10;10.30;93.10
19868;DHT22;10096;51.112;6.776;2024-02-28T13:18:37;10.50;69.60
19868;DHT22;10096;51.112;6.776;2024-02-28T13:21:07;10.50;82.20
19868;DHT22;10096;51.112;6.776;2024-02-28T13:23:42;10.70;70.20
19868;DHT22;10096;51.112;6.776;2024-02-28T13:26:09;10.70;63.80
19868;DHT22;10096;51.112;6.776;2024-02-28T13:28:44;10.70;64.40
19868;DHT22;10096;51.112;6.776;2024-02-28T13:31:11;10.80;61.30
19868;DHT22;10096;51.112;6.776;2024-02-28T13:33:42;11.10;55.00
19868;DHT22;10096;51.112;6.776;2024-02-28T13:36:14;10.90;43.10
19868;DHT22;10096;51.112;6.776;2024-02-28T13:38:42;11.00;55.50
19868;DHT22;10096;51.112;6.776;2024-02-28T13:41:10;11.00;59.60
19868;DHT22;10096;51.112;6.776;2024-02-28T13:43:45;11.00;45.40
19868;DHT22;10096;51.112;6.776;2024-02-28T13:46:17;11.00;49.50
19868;DHT22;10096;51.112;6.776;2024-02-28T13:48:46;11.00;52.60
19868;DHT22;10096;51.112;6.776;2024-02-28T13:51:15;11.00;48.00
19868;DHT22;10096;51.112;6.776;2024-02-28T13:53:42;10.80;47.50
19868;DHT22;10096;51.112;6.776;2024-02-28T13:56:09;11.00;44.70
19868;DHT22;10096;51.112;6.776;2024-02-28T13:58:37;10.90;39.70
19868;DHT22;10096;51.112;6.776;2024-02-28T14:01:06;10.80;34.70
19868;DHT22;10096;51.112;6.776;2024-02-28T14:03:33;10.90;41.70
19868;DHT22;10096;51.112;6.776;2024-02-28T14:06:00;11.00;45.10
19868;DHT22;10096;51.112;6.776;2024-02-28T14:08:28;11.10;45.30
19868;DHT22;10096;51.112;6.776;2024-02-28T14:10:57;11.00;41.50
19868;DHT22;10096;51.112;6.776;2024-02-28T14:13:29;11.00;44.80
19868;DHT22;10096;51.112;6.776;2024-02-28T14:15:56;11.20;46.70
19868;DHT22;10096;51.112;6.776;2024-02-28T14:18:25;11.00;49.00
19868;DHT22;10096;51.112;6.776;2024-02-28T14:20:52;11.10;41.40
19868;DHT22;10096;51.112;6.776;2024-02-28T14:23:19;11.10;37.50
19868;DHT22;10096;51.112;6.776;2024-02-28T14:25:47;11.30;35.20
19868;DHT22;10096;51.112;6.776;2024-02-28T14:28:15;11.30;31.20
19868;DHT22;10096;51.112;6.776;2024-02-28T14:30:45;11.40;35.80
19868;DHT22;10096;51.112;6.776;2024-02-28T14:33:28;11.40;32.40
19868;DHT22;10096;51.112;6.776;2024-02-28T14:35:59;11.30;28.50
19868;DHT22;10096;51.112;6.776;2024-02-28T14:38:26;11.30;31.40
19868;DHT22;10096;51.112;6.776;2024-02-28T14:40:53;11.10;28.50
19868;DHT22;10096;51.112;6.776;2024-02-28T14:43:21;11.40;31.50
19868;DHT22;10096;51.112;6.776;2024-02-28T14:45:48;11.20;33.10
19868;DHT22;10096;51.112;6.776;2024-02-28T14:48:22;11.40;35.90
19868;DHT22;10096;51.112;6.776;2024-02-28T14:50:53;11.20;33.20
19868;DHT22;10096;51.112;6.776;2024-02-28T14:53:24;11.20;33.00
19868;DHT22;10096;51.112;6.776;2024-02-28T14:55:51;11.30;34.00
19868;DHT22;10096;51.112;6.776;2024-02-28T14:58:19;11.40;30.20
19868;DHT22;10096;51.112;6.776;2024-02-28T15:01:03;11.40;31.00
19868;DHT22;10096;51.112;6.776;2024-02-28T15:03:30;11.40;28.70
19868;DHT22;10096;51.112;6.776;2024-02-28T15:06:00;11.30;30.10
19868;DHT22;10096;51.112;6.776;2024-02-28T15:08:34;11.30;32.70
19868;DHT22;10096;51.112;6.776;2024-02-28T15:11:05;11.10;26.90
19868;DHT22;10096;51.112;6.776;2024-02-28T15:13:33;11.10;27.30
19868;DHT22;10096;51.112;6.776;2024-02-28T15:16:00;11.00;33.40
19868;DHT22;10096;51.112;6.776;2024-02-28T15:18:30;11.20;27.20
19868;DHT22;10096;51.112;6.776;2024-02-28T15:21:06;11.20;29.80
19868;DHT22;10096;51.112;6.776;2024-02-28T15:23:38;11.20;26.10
19868;DHT22;10096;51.112;6.776;2024-02-28T15:26:05;11.20;30.00
19868;DHT22;10096;51.112;6.776;2024-02-28T15:28:33;11.30;29.20
19868;DHT22;10096;51.112;6.776;2024-02-28T15:31:01;11.20;27.70
19868;DHT22;10096;51.112;6.776;2024-02-28T15:33:32;11.20;33.10
19868;DHT22;10096;51.112;6.776;2024-02-28T15:35:59;11.50;30.90
19868;DHT22;10096;51.112;6.776;2024-02-28T15:38:30;11.40;25.60
19868;DHT22;10096;51.112;6.776;2024-02-28T15:40:57;11.60;29.60
19868;DHT22;10096;51.112;6.776;2024-02-28T15:43:27;11.70;27.70
19868;DHT22;10096;51.112;6.776;2024-02-28T15:45:57;11.60;26.70
19868;DHT22;10096;51.112;6.776;2024-02-28T15:48:26;11.60;27.80
19868;DHT22;10096;51.112;6.776;2024-02-28T15:50:54;11.60;23.50
19868;DHT22;10096;51.112;6.776;2024-02-28T15:53:22;11.70;26.50
19868;DHT22;10096;51.112;6.776;2024-02-28T15:55:55;11.50;25.00
19868;DHT22;10096;51.112;6.776;2024-02-28T15:58:22;11.40;26.70
19868;DHT22;10096;51.112;6.776;2024-02-28T16:00:49;11.40;25.40
19868;DHT22;10096;51.112;6.776;2024-02-28T16:03:17;11.10;26.60
19868;DHT22;10096;51.112;6.776;2024-02-28T16:05:45;11.00;25.50